sensor_id;sensor_type;location;lat;lon;timestamp;P1;durP1;ratioP1;P2;durP2;ratioP2
8293;SDS011;4185;41.506;24.938;2022-10-30T00:01:38;6.60;;;4.10;;
8293;SDS011;4185;41.506;24.938;2022-10-30T00:04:05;5.50;;;4.13;;
8293;SDS011;4185;41.506;24.938;2022-10-30T00:06:32;5.27;;;4.30;;
8293;SDS011;4185;41.506;24.938;2022-10-30T00:08:59;4.50;;;3.93;;
8293;SDS011;4185;41.506;24.938;2022-10-30T00:11:28;5.90;;;3.97;;
8293;SDS011;4185;41.506;24.938;2022-10-30T00:13:56;5.53;;;4.23;;
8293;SDS011;4185;41.506;24.938;2022-10-30T00:16:23;5.53;;;4.10;;
8293;SDS011;4185;41.506;24.938;2022-10-30T00:18:50;6.30;;;4.73;;
8293;SDS011;4185;41.506;24.938;2022-10-30T00:21:17;7.43;;;4.77;;
8293;SDS011;4185;41.506;24.938;2022-10-30T00:23:44;6.47;;;4.67;;
8293;SDS011;4185;41.506;24.938;2022-10-30T00:26:12;4.47;;;4.07;;
8293;SDS011;4185;41.506;24.938;2022-10-30T00:28:39;5.27;;;3.93;;
8293;SDS011;4185;41.506;24.938;2022-10-30T00:31:07;6.07;;;4.40;;
8293;SDS011;4185;41.506;24.938;2022-10-30T00:33:34;6.57;;;4.17;;
8293;SDS011;4185;41.506;24.938;2022-10-30T00:36:01;5.00;;;3.93;;
8293;SDS011;4185;41.506;24.938;2022-10-30T00:38:27;4.77;;;4.13;;
8293;SDS011;4185;41.506;24.938;2022-10-30T00:40:54;4.43;;;3.43;;
8293;SDS011;4185;41.506;24.938;2022-10-30T00:43:28;6.70;;;4.27;;
8293;SDS011;4185;41.506;24.938;2022-10-30T00:45:58;4.60;;;4.03;;
8293;SDS011;4185;41.506;24.938;2022-10-30T00:48:31;4.40;;;3.83;;
8293;SDS011;4185;41.506;24.938;2022-10-30T00:51:00;5.67;;;4.30;;
8293;SDS011;4185;41.506;24.938;2022-10-30T00:53:29;8.07;;;5.27;;
8293;SDS011;4185;41.506;24.938;2022-10-30T00:55:56;9.57;;;5.10;;
8293;SDS011;4185;41.506;24.938;2022-10-30T00:58:28;5.43;;;4.57;;
8293;SDS011;4185;41.506;24.938;2022-10-30T01:00:57;5.33;;;4.83;;
8293;SDS011;4185;41.506;24.938;2022-10-30T01:03:29;5.33;;;3.87;;
8293;SDS011;4185;41.506;24.938;2022-10-30T01:06:00;5.17;;;4.67;;
8293;SDS011;4185;41.506;24.938;2022-10-30T01:08:29;5.47;;;4.30;;
8293;SDS011;4185;41.506;24.938;2022-10-30T01:10:57;5.00;;;4.60;;
8293;SDS011;4185;41.506;24.938;2022-10-30T01:13:27;5.60;;;4.10;;
8293;SDS011;4185;41.506;24.938;2022-10-30T01:16:01;4.53;;;4.13;;
8293;SDS011;4185;41.506;24.938;2022-10-30T01:18:37;5.00;;;4.30;;
8293;SDS011;4185;41.506;24.938;2022-10-30T01:21:16;4.73;;;4.03;;
8293;SDS011;4185;41.506;24.938;2022-10-30T01:24:02;4.40;;;3.50;;
8293;SDS011;4185;41.506;24.938;2022-10-30T01:26:48;4.37;;;3.97;;
8293;SDS011;4185;41.506;24.938;2022-10-30T01:29:26;4.40;;;4.00;;
8293;SDS011;4185;41.506;24.938;2022-10-30T01:32:08;5.50;;;3.97;;
8293;SDS011;4185;41.506;24.938;2022-10-30T01:34:46;5.90;;;4.20;;
8293;SDS011;4185;41.506;24.938;2022-10-30T01:37:23;4.53;;;3.77;;
8293;SDS011;4185;41.506;24.938;2022-10-30T01:40:02;4.23;;;3.83;;
8293;SDS011;4185;41.506;24.938;2022-10-30T01:42:44;5.00;;;4.50;;
8293;SDS011;4185;41.506;24.938;2022-10-30T01:45:13;5.63;;;4.30;;
8293;SDS011;4185;41.506;24.938;2022-10-30T01:47:46;4.67;;;4.00;;
8293;SDS011;4185;41.506;24.938;2022-10-30T01:50:23;5.00;;;4.30;;
8293;SDS011;4185;41.506;24.938;2022-10-30T01:53:01;5.87;;;3.93;;
8293;SDS011;4185;41.506;24.938;2022-10-30T01:55:35;5.00;;;4.20;;
8293;SDS011;4185;41.506;24.938;2022-10-30T01:58:12;4.33;;;3.67;;
8293;SDS011;4185;41.506;24.938;2022-10-30T02:00:45;5.07;;;4.53;;
8293;SDS011;4185;41.506;24.938;2022-10-30T02:03:16;5.57;;;4.37;;
8293;SDS011;4185;41.506;24.938;2022-10-30T02:05:44;4.93;;;4.43;;
8293;SDS011;4185;41.506;24.938;2022-10-30T02:08:15;5.23;;;4.73;;
8293;SDS011;4185;41.506;24.938;2022-10-30T02:10:42;4.77;;;4.10;;
8293;SDS011;4185;41.506;24.938;2022-10-30T02:13:11;5.20;;;4.70;;
8293;SDS011;4185;41.506;24.938;2022-10-30T02:15:39;5.13;;;4.17;;
8293;SDS011;4185;41.506;24.938;2022-10-30T02:18:07;4.50;;;3.80;;
8293;SDS011;4185;41.506;24.938;2022-10-30T02:20:35;5.63;;;4.87;;
8293;SDS011;4185;41.506;24.938;2022-10-30T02:23:02;6.80;;;4.83;;
8293;SDS011;4185;41.506;24.938;2022-10-30T02:25:30;6.90;;;4.70;;
8293;SDS011;4185;41.506;24.938;2022-10-30T02:27:57;6.07;;;4.67;;
8293;SDS011;4185;41.506;24.938;2022-10-30T02:30:24;5.33;;;4.63;;
8293;SDS011;4185;41.506;24.938;2022-10-30T02:32:51;4.27;;;3.77;;
8293;SDS011;4185;41.506;24.938;2022-10-30T02:35:17;7.57;;;4.10;;
8293;SDS011;4185;41.506;24.938;2022-10-30T02:37:47;5.67;;;4.27;;
8293;SDS011;4185;41.506;24.938;2022-10-30T02:40:14;5.40;;;4.50;;
8293;SDS011;4185;41.506;24.938;2022-10-30T02:42:41;4.43;;;4.10;;
8293;SDS011;4185;41.506;24.938;2022-10-30T02:45:08;5.43;;;4.33;;
8293;SDS011;4185;41.506;24.938;2022-10-30T02:47:35;8.27;;;5.03;;
8293;SDS011;4185;41.506;24.938;2022-10-30T02:50:02;12.87;;;8.93;;
8293;SDS011;4185;41.506;24.938;2022-10-30T02:52:29;13.30;;;10.50;;
8293;SDS011;4185;41.506;24.938;2022-10-30T02:54:58;9.67;;;7.00;;
8293;SDS011;4185;41.506;24.938;2022-10-30T02:57:25;5.90;;;5.00;;
8293;SDS011;4185;41.506;24.938;2022-10-30T02:59:52;4.63;;;4.23;;
8293;SDS011;4185;41.506;24.938;2022-10-30T03:02:19;7.10;;;4.70;;
8293;SDS011;4185;41.506;24.938;2022-10-30T03:04:45;4.07;;;3.73;;
8293;SDS011;4185;41.506;24.938;2022-10-30T03:07:12;5.50;;;4.77;;
8293;SDS011;4185;41.506;24.938;2022-10-30T03:09:39;6.10;;;4.23;;
8293;SDS011;4185;41.506;24.938;2022-10-30T03:12:07;5.67;;;4.30;;
8293;SDS011;4185;41.506;24.938;2022-10-30T03:14:34;5.57;;;4.60;;
8293;SDS011;4185;41.506;24.938;2022-10-30T03:17:01;35.77;;;19.83;;
8293;SDS011;4185;41.506;24.938;2022-10-30T03:19:27;7.87;;;5.60;;
8293;SDS011;4185;41.506;24.938;2022-10-30T03:21:54;6.03;;;4.60;;
8293;SDS011;4185;41.506;24.938;2022-10-30T03:24:21;4.73;;;3.83;;
8293;SDS011;4185;41.506;24.938;2022-10-30T03:26:48;11.43;;;6.70;;
8293;SDS011;4185;41.506;24.938;2022-10-30T03:29:16;13.50;;;8.83;;
8293;SDS011;4185;41.506;24.938;2022-10-30T03:31:43;8.53;;;6.03;;
8293;SDS011;4185;41.506;24.938;2022-10-30T03:34:09;10.73;;;7.80;;
8293;SDS011;4185;41.506;24.938;2022-10-30T03:36:36;10.80;;;7.07;;
8293;SDS011;4185;41.506;24.938;2022-10-30T03:39:03;17.63;;;10.80;;
8293;SDS011;4185;41.506;24.938;2022-10-30T03:41:30;10.47;;;7.47;;
8293;SDS011;4185;41.506;24.938;2022-10-30T03:43:57;8.03;;;5.37;;
8293;SDS011;4185;41.506;24.938;2022-10-30T03:46:25;5.23;;;4.73;;
8293;SDS011;4185;41.506;24.938;2022-10-30T03:48:52;10.13;;;6.50;;
8293;SDS011;4185;41.506;24.938;2022-10-30T03:51:19;11.67;;;7.53;;
8293;SDS011;4185;41.506;24.938;2022-10-30T03:53:45;10.57;;;7.30;;
8293;SDS011;4185;41.506;24.938;2022-10-30T03:56:12;13.57;;;10.03;;
8293;SDS011;4185;41.506;24.938;2022-10-30T03:58:39;9.63;;;6.90;;
8293;SDS011;4185;41.506;24.938;2022-10-30T04:01:06;8.27;;;5.77;;
8293;SDS011;4185;41.506;24.938;2022-10-30T04:03:35;6.40;;;4.83;;
8293;SDS011;4185;41.506;24.938;2022-10-30T04:06:02;5.50;;;4.97;;
8293;SDS011;4185;41.506;24.938;2022-10-30T04:08:31;16.03;;;8.40;;
8293;SDS011;4185;41.506;24.938;2022-10-30T04:10:57;14.93;;;9.53;;
8293;SDS011;4185;41.506;24.938;2022-10-30T04:13:24;26.13;;;13.83;;
8293;SDS011;4185;41.506;24.938;2022-10-30T04:15:51;26.40;;;14.60;;
8293;SDS011;4185;41.506;24.938;2022-10-30T04:18:18;27.37;;;15.30;;
8293;SDS011;4185;41.506;24.938;2022-10-30T04:20:46;9.20;;;5.90;;
8293;SDS011;4185;41.506;24.938;2022-10-30T04:23:14;9.63;;;6.60;;
8293;SDS011;4185;41.506;24.938;2022-10-30T04:25:41;10.90;;;7.47;;
8293;SDS011;4185;41.506;24.938;2022-10-30T04:28:08;7.70;;;5.77;;
8293;SDS011;4185;41.506;24.938;2022-10-30T04:30:36;10.77;;;6.13;;
8293;SDS011;4185;41.506;24.938;2022-10-30T04:33:05;10.57;;;5.90;;
8293;SDS011;4185;41.506;24.938;2022-10-30T04:35:33;7.13;;;5.97;;
8293;SDS011;4185;41.506;24.938;2022-10-30T04:38:04;6.40;;;5.13;;
8293;SDS011;4185;41.506;24.938;2022-10-30T04:40:33;7.00;;;5.40;;
8293;SDS011;4185;41.506;24.938;2022-10-30T04:43:01;7.00;;;5.93;;
8293;SDS011;4185;41.506;24.938;2022-10-30T04:45:28;10.27;;;6.80;;
8293;SDS011;4185;41.506;24.938;2022-10-30T04:47:58;8.03;;;6.13;;
8293;SDS011;4185;41.506;24.938;2022-10-30T04:50:26;9.83;;;6.83;;
8293;SDS011;4185;41.506;24.938;2022-10-30T04:52:57;9.73;;;6.33;;
8293;SDS011;4185;41.506;24.938;2022-10-30T04:55:26;7.07;;;5.80;;
8293;SDS011;4185;41.506;24.938;2022-10-30T04:57:54;9.70;;;7.10;;
8293;SDS011;4185;41.506;24.938;2022-10-30T05:00:22;8.60;;;6.67;;
8293;SDS011;4185;41.506;24.938;2022-10-30T05:02:49;18.53;;;11.90;;
8293;SDS011;4185;41.506;24.938;2022-10-30T05:05:16;24.90;;;14.93;;
8293;SDS011;4185;41.506;24.938;2022-10-30T05:07:43;18.07;;;12.10;;
8293;SDS011;4185;41.506;24.938;2022-10-30T05:10:10;11.63;;;8.37;;
8293;SDS011;4185;41.506;24.938;2022-10-30T05:12:41;13.63;;;8.87;;
8293;SDS011;4185;41.506;24.938;2022-10-30T05:15:08;24.73;;;16.87;;
8293;SDS011;4185;41.506;24.938;2022-10-30T05:17:36;20.43;;;13.67;;
8293;SDS011;4185;41.506;24.938;2022-10-30T05:20:03;15.73;;;10.50;;
8293;SDS011;4185;41.506;24.938;2022-10-30T05:22:30;15.87;;;10.03;;
8293;SDS011;4185;41.506;24.938;2022-10-30T05:24:57;22.20;;;13.13;;
8293;SDS011;4185;41.506;24.938;2022-10-30T05:27:24;10.17;;;7.40;;
8293;SDS011;4185;41.506;24.938;2022-10-30T05:29:52;11.07;;;7.70;;
8293;SDS011;4185;41.506;24.938;2022-10-30T05:32:19;9.10;;;7.20;;
8293;SDS011;4185;41.506;24.938;2022-10-30T05:34:46;12.23;;;8.13;;
8293;SDS011;4185;41.506;24.938;2022-10-30T05:37:12;21.60;;;12.57;;
8293;SDS011;4185;41.506;24.938;2022-10-30T05:39:39;16.17;;;10.63;;
8293;SDS011;4185;41.506;24.938;2022-10-30T05:42:06;36.67;;;18.93;;
8293;SDS011;4185;41.506;24.938;2022-10-30T05:44:33;12.07;;;8.90;;
8293;SDS011;4185;41.506;24.938;2022-10-30T05:47:01;10.87;;;8.83;;
8293;SDS011;4185;41.506;24.938;2022-10-30T05:49:28;37.97;;;24.27;;
8293;SDS011;4185;41.506;24.938;2022-10-30T05:51:55;20.93;;;15.10;;
8293;SDS011;4185;41.506;24.938;2022-10-30T05:54:21;26.10;;;17.13;;
8293;SDS011;4185;41.506;24.938;2022-10-30T05:56:48;14.60;;;9.93;;
8293;SDS011;4185;41.506;24.938;2022-10-30T05:59:15;9.70;;;7.87;;
8293;SDS011;4185;41.506;24.938;2022-10-30T06:01:42;7.43;;;6.30;;
8293;SDS011;4185;41.506;24.938;2022-10-30T06:04:10;15.40;;;10.70;;
8293;SDS011;4185;41.506;24.938;2022-10-30T06:06:37;9.23;;;7.17;;
8293;SDS011;4185;41.506;24.938;2022-10-30T06:09:04;11.10;;;8.07;;
8293;SDS011;4185;41.506;24.938;2022-10-30T06:11:30;9.93;;;6.83;;
8293;SDS011;4185;41.506;24.938;2022-10-30T06:13:57;5.57;;;4.30;;
8293;SDS011;4185;41.506;24.938;2022-10-30T06:16:24;6.83;;;5.17;;
8293;SDS011;4185;41.506;24.938;2022-10-30T06:18:51;9.27;;;5.70;;
8293;SDS011;4185;41.506;24.938;2022-10-30T06:21:19;12.83;;;7.83;;
8293;SDS011;4185;41.506;24.938;2022-10-30T06:23:46;7.17;;;5.73;;
8293;SDS011;4185;41.506;24.938;2022-10-30T06:26:13;8.77;;;6.67;;
8293;SDS011;4185;41.506;24.938;2022-10-30T06:28:40;9.73;;;5.83;;
8293;SDS011;4185;41.506;24.938;2022-10-30T06:31:07;13.30;;;9.47;;
8293;SDS011;4185;41.506;24.938;2022-10-30T06:33:34;13.33;;;9.23;;
8293;SDS011;4185;41.506;24.938;2022-10-30T06:36:01;11.80;;;7.67;;
8293;SDS011;4185;41.506;24.938;2022-10-30T06:38:29;11.03;;;8.20;;
8293;SDS011;4185;41.506;24.938;2022-10-30T06:40:56;9.27;;;6.77;;
8293;SDS011;4185;41.506;24.938;2022-10-30T06:43:23;11.87;;;8.30;;
8293;SDS011;4185;41.506;24.938;2022-10-30T06:45:50;16.13;;;10.20;;
8293;SDS011;4185;41.506;24.938;2022-10-30T06:48:16;20.00;;;12.53;;
8293;SDS011;4185;41.506;24.938;2022-10-30T06:50:43;13.47;;;9.03;;
8293;SDS011;4185;41.506;24.938;2022-10-30T06:53:10;6.90;;;6.00;;
8293;SDS011;4185;41.506;24.938;2022-10-30T06:55:38;6.83;;;5.60;;
8293;SDS011;4185;41.506;24.938;2022-10-30T06:58:05;8.90;;;6.20;;
8293;SDS011;4185;41.506;24.938;2022-10-30T07:00:32;9.60;;;6.37;;
8293;SDS011;4185;41.506;24.938;2022-10-30T07:02:59;7.27;;;5.20;;
8293;SDS011;4185;41.506;24.938;2022-10-30T07:05:28;8.13;;;6.20;;
8293;SDS011;4185;41.506;24.938;2022-10-30T07:07:55;8.47;;;6.30;;
8293;SDS011;4185;41.506;24.938;2022-10-30T07:10:23;11.37;;;7.13;;
8293;SDS011;4185;41.506;24.938;2022-10-30T07:12:51;11.83;;;8.47;;
8293;SDS011;4185;41.506;24.938;2022-10-30T07:15:19;10.80;;;7.83;;
8293;SDS011;4185;41.506;24.938;2022-10-30T07:17:56;9.63;;;7.47;;
8293;SDS011;4185;41.506;24.938;2022-10-30T07:20:24;13.10;;;9.20;;
8293;SDS011;4185;41.506;24.938;2022-10-30T07:22:51;11.33;;;8.13;;
8293;SDS011;4185;41.506;24.938;2022-10-30T07:25:18;13.30;;;8.93;;
8293;SDS011;4185;41.506;24.938;2022-10-30T07:27:46;11.57;;;7.37;;
8293;SDS011;4185;41.506;24.938;2022-10-30T07:30:15;7.27;;;5.33;;
8293;SDS011;4185;41.506;24.938;2022-10-30T07:32:43;8.30;;;6.00;;
8293;SDS011;4185;41.506;24.938;2022-10-30T07:35:10;10.63;;;6.93;;
8293;SDS011;4185;41.506;24.938;2022-10-30T07:37:38;9.57;;;6.93;;
8293;SDS011;4185;41.506;24.938;2022-10-30T07:40:06;9.97;;;7.03;;
8293;SDS011;4185;41.506;24.938;2022-10-30T07:42:33;10.03;;;6.77;;
8293;SDS011;4185;41.506;24.938;2022-10-30T07:45:00;11.07;;;7.63;;
8293;SDS011;4185;41.506;24.938;2022-10-30T07:47:28;11.00;;;7.33;;
8293;SDS011;4185;41.506;24.938;2022-10-30T07:49:55;11.80;;;7.67;;
8293;SDS011;4185;41.506;24.938;2022-10-30T07:52:22;9.17;;;6.97;;
8293;SDS011;4185;41.506;24.938;2022-10-30T07:54:48;9.07;;;7.13;;
8293;SDS011;4185;41.506;24.938;2022-10-30T07:57:15;11.10;;;7.33;;
8293;SDS011;4185;41.506;24.938;2022-10-30T07:59:42;11.83;;;6.80;;
8293;SDS011;4185;41.506;24.938;2022-10-30T08:02:09;9.20;;;6.67;;
8293;SDS011;4185;41.506;24.938;2022-10-30T08:04:37;8.73;;;6.53;;
8293;SDS011;4185;41.506;24.938;2022-10-30T08:07:04;11.50;;;8.40;;
8293;SDS011;4185;41.506;24.938;2022-10-30T08:09:30;10.50;;;7.73;;
8293;SDS011;4185;41.506;24.938;2022-10-30T08:11:57;15.60;;;9.27;;
8293;SDS011;4185;41.506;24.938;2022-10-30T08:14:24;11.37;;;8.10;;
8293;SDS011;4185;41.506;24.938;2022-10-30T08:16:51;9.23;;;6.30;;
8293;SDS011;4185;41.506;24.938;2022-10-30T08:19:18;7.07;;;5.37;;
8293;SDS011;4185;41.506;24.938;2022-10-30T08:21:46;7.97;;;5.20;;
8293;SDS011;4185;41.506;24.938;2022-10-30T08:24:13;6.17;;;5.03;;
8293;SDS011;4185;41.506;24.938;2022-10-30T08:26:40;6.70;;;5.60;;
8293;SDS011;4185;41.506;24.938;2022-10-30T08:29:06;6.10;;;5.10;;
8293;SDS011;4185;41.506;24.938;2022-10-30T08:31:33;8.80;;;4.60;;
8293;SDS011;4185;41.506;24.938;2022-10-30T08:34:00;5.60;;;4.20;;
8293;SDS011;4185;41.506;24.938;2022-10-30T08:36:27;6.10;;;3.90;;
8293;SDS011;4185;41.506;24.938;2022-10-30T08:38:55;4.87;;;4.13;;
8293;SDS011;4185;41.506;24.938;2022-10-30T08:41:22;5.00;;;3.93;;
8293;SDS011;4185;41.506;24.938;2022-10-30T08:43:49;7.23;;;4.80;;
8293;SDS011;4185;41.506;24.938;2022-10-30T08:46:16;5.53;;;3.47;;
8293;SDS011;4185;41.506;24.938;2022-10-30T08:48:42;5.40;;;4.40;;
8293;SDS011;4185;41.506;24.938;2022-10-30T08:51:09;5.07;;;4.07;;
8293;SDS011;4185;41.506;24.938;2022-10-30T08:53:36;5.03;;;4.27;;
8293;SDS011;4185;41.506;24.938;2022-10-30T08:56:04;5.73;;;4.10;;
8293;SDS011;4185;41.506;24.938;2022-10-30T08:58:31;8.43;;;4.67;;
8293;SDS011;4185;41.506;24.938;2022-10-30T09:00:58;5.40;;;4.17;;
8293;SDS011;4185;41.506;24.938;2022-10-30T09:03:25;4.57;;;3.77;;
8293;SDS011;4185;41.506;24.938;2022-10-30T09:05:52;6.83;;;3.40;;
8293;SDS011;4185;41.506;24.938;2022-10-30T09:08:18;6.03;;;4.10;;
8293;SDS011;4185;41.506;24.938;2022-10-30T09:10:45;5.43;;;3.97;;
8293;SDS011;4185;41.506;24.938;2022-10-30T09:13:13;4.50;;;3.97;;
8293;SDS011;4185;41.506;24.938;2022-10-30T09:15:40;6.10;;;3.60;;
8293;SDS011;4185;41.506;24.938;2022-10-30T09:18:07;4.93;;;3.40;;
8293;SDS011;4185;41.506;24.938;2022-10-30T09:20:34;3.87;;;3.00;;
8293;SDS011;4185;41.506;24.938;2022-10-30T09:23:01;7.23;;;3.60;;
8293;SDS011;4185;41.506;24.938;2022-10-30T09:25:27;6.50;;;3.63;;
8293;SDS011;4185;41.506;24.938;2022-10-30T09:27:54;5.53;;;3.90;;
8293;SDS011;4185;41.506;24.938;2022-10-30T09:30:23;4.77;;;3.40;;
8293;SDS011;4185;41.506;24.938;2022-10-30T09:32:53;4.67;;;2.80;;
8293;SDS011;4185;41.506;24.938;2022-10-30T09:35:21;4.23;;;2.40;;
8293;SDS011;4185;41.506;24.938;2022-10-30T09:37:48;5.30;;;3.20;;
8293;SDS011;4185;41.506;24.938;2022-10-30T09:40:17;3.93;;;2.70;;
8293;SDS011;4185;41.506;24.938;2022-10-30T09:42:48;2.90;;;2.60;;
8293;SDS011;4185;41.506;24.938;2022-10-30T09:45:19;4.23;;;2.97;;
8293;SDS011;4185;41.506;24.938;2022-10-30T09:48:13;3.30;;;2.30;;
8293;SDS011;4185;41.506;24.938;2022-10-30T09:51:07;4.23;;;2.97;;
8293;SDS011;4185;41.506;24.938;2022-10-30T09:53:48;2.90;;;1.90;;
8293;SDS011;4185;41.506;24.938;2022-10-30T09:56:24;2.63;;;1.57;;
8293;SDS011;4185;41.506;24.938;2022-10-30T09:58:59;3.80;;;2.50;;
8293;SDS011;4185;41.506;24.938;2022-10-30T10:01:33;4.37;;;2.03;;
8293;SDS011;4185;41.506;24.938;2022-10-30T10:04:12;2.03;;;1.70;;
8293;SDS011;4185;41.506;24.938;2022-10-30T10:06:47;2.80;;;1.93;;
8293;SDS011;4185;41.506;24.938;2022-10-30T10:09:21;2.80;;;1.80;;
8293;SDS011;4185;41.506;24.938;2022-10-30T10:11:50;6.10;;;1.57;;
8293;SDS011;4185;41.506;24.938;2022-10-30T10:14:21;2.97;;;2.17;;
8293;SDS011;4185;41.506;24.938;2022-10-30T10:16:51;1.73;;;1.43;;
8293;SDS011;4185;41.506;24.938;2022-10-30T10:19:21;3.57;;;1.60;;
8293;SDS011;4185;41.506;24.938;2022-10-30T10:21:54;2.17;;;1.57;;
8293;SDS011;4185;41.506;24.938;2022-10-30T10:24:23;2.40;;;1.40;;
8293;SDS011;4185;41.506;24.938;2022-10-30T10:26:56;2.83;;;1.73;;
8293;SDS011;4185;41.506;24.938;2022-10-30T10:29:31;3.20;;;1.80;;
8293;SDS011;4185;41.506;24.938;2022-10-30T10:32:14;1.63;;;1.47;;
8293;SDS011;4185;41.506;24.938;2022-10-30T10:34:56;4.00;;;1.70;;
8293;SDS011;4185;41.506;24.938;2022-10-30T10:37:47;2.03;;;1.57;;
8293;SDS011;4185;41.506;24.938;2022-10-30T10:40:20;2.73;;;1.93;;
8293;SDS011;4185;41.506;24.938;2022-10-30T10:43:05;2.87;;;1.53;;
8293;SDS011;4185;41.506;24.938;2022-10-30T10:45:47;1.60;;;1.50;;
8293;SDS011;4185;41.506;24.938;2022-10-30T10:51:14;2.57;;;1.97;;
8293;SDS011;4185;41.506;24.938;2022-10-30T10:53:45;1.90;;;1.40;;
8293;SDS011;4185;41.506;24.938;2022-10-30T10:56:18;3.37;;;1.40;;
8293;SDS011;4185;41.506;24.938;2022-10-30T10:58:52;3.10;;;1.80;;
8293;SDS011;4185;41.506;24.938;2022-10-30T11:01:23;2.60;;;1.30;;
8293;SDS011;4185;41.506;24.938;2022-10-30T11:04:00;2.00;;;1.43;;
8293;SDS011;4185;41.506;24.938;2022-10-30T11:06:30;2.80;;;1.40;;
8293;SDS011;4185;41.506;24.938;2022-10-30T11:09:04;2.27;;;1.30;;
8293;SDS011;4185;41.506;24.938;2022-10-30T11:11:40;3.87;;;1.80;;
8293;SDS011;4185;41.506;24.938;2022-10-30T11:14:12;2.67;;;1.53;;
8293;SDS011;4185;41.506;24.938;2022-10-30T11:16:46;2.27;;;1.70;;
8293;SDS011;4185;41.506;24.938;2022-10-30T11:19:24;45.90;;;27.70;;
8293;SDS011;4185;41.506;24.938;2022-10-30T11:21:52;20.00;;;11.90;;
8293;SDS011;4185;41.506;24.938;2022-10-30T11:24:27;10.33;;;6.87;;
8293;SDS011;4185;41.506;24.938;2022-10-30T11:26:56;15.07;;;8.40;;
8293;SDS011;4185;41.506;24.938;2022-10-30T11:29:26;4.33;;;2.80;;
8293;SDS011;4185;41.506;24.938;2022-10-30T11:31:58;5.27;;;2.77;;
8293;SDS011;4185;41.506;24.938;2022-10-30T11:34:33;4.10;;;1.87;;
8293;SDS011;4185;41.506;24.938;2022-10-30T11:37:02;3.73;;;2.07;;
8293;SDS011;4185;41.506;24.938;2022-10-30T11:39:30;3.10;;;1.80;;
8293;SDS011;4185;41.506;24.938;2022-10-30T11:41:59;2.33;;;1.50;;
8293;SDS011;4185;41.506;24.938;2022-10-30T11:44:31;4.60;;;1.73;;
8293;SDS011;4185;41.506;24.938;2022-10-30T11:47:01;3.17;;;2.07;;
8293;SDS011;4185;41.506;24.938;2022-10-30T11:49:31;4.20;;;1.87;;
8293;SDS011;4185;41.506;24.938;2022-10-30T11:52:02;4.83;;;2.30;;
8293;SDS011;4185;41.506;24.938;2022-10-30T11:54:33;2.43;;;1.37;;
8293;SDS011;4185;41.506;24.938;2022-10-30T11:57:01;2.60;;;1.87;;
8293;SDS011;4185;41.506;24.938;2022-10-30T11:59:30;2.97;;;2.17;;
8293;SDS011;4185;41.506;24.938;2022-10-30T12:01:58;3.10;;;1.90;;
8293;SDS011;4185;41.506;24.938;2022-10-30T12:04:27;3.33;;;1.63;;
8293;SDS011;4185;41.506;24.938;2022-10-30T12:07:06;1.87;;;1.27;;
8293;SDS011;4185;41.506;24.938;2022-10-30T12:09:41;1.80;;;1.40;;
8293;SDS011;4185;41.506;24.938;2022-10-30T12:12:09;2.00;;;1.50;;
8293;SDS011;4185;41.506;24.938;2022-10-30T12:14:38;2.60;;;1.37;;
8293;SDS011;4185;41.506;24.938;2022-10-30T12:17:05;1.87;;;1.50;;
8293;SDS011;4185;41.506;24.938;2022-10-30T12:19:32;2.93;;;1.73;;
8293;SDS011;4185;41.506;24.938;2022-10-30T12:22:00;7.47;;;1.90;;
8293;SDS011;4185;41.506;24.938;2022-10-30T12:24:28;2.97;;;1.70;;
8293;SDS011;4185;41.506;24.938;2022-10-30T12:26:59;2.50;;;1.60;;
8293;SDS011;4185;41.506;24.938;2022-10-30T12:29:34;1.93;;;1.63;;
8293;SDS011;4185;41.506;24.938;2022-10-30T12:32:08;5.83;;;1.83;;
8293;SDS011;4185;41.506;24.938;2022-10-30T12:34:42;4.97;;;2.17;;
8293;SDS011;4185;41.506;24.938;2022-10-30T12:37:12;2.57;;;1.73;;
8293;SDS011;4185;41.506;24.938;2022-10-30T12:39:48;3.70;;;2.10;;
8293;SDS011;4185;41.506;24.938;2022-10-30T12:42:21;3.93;;;1.70;;
8293;SDS011;4185;41.506;24.938;2022-10-30T12:44:51;3.67;;;1.70;;
8293;SDS011;4185;41.506;24.938;2022-10-30T12:47:27;3.77;;;1.60;;
8293;SDS011;4185;41.506;24.938;2022-10-30T12:50:00;5.93;;;1.80;;
8293;SDS011;4185;41.506;24.938;2022-10-30T12:52:32;2.20;;;1.73;;
8293;SDS011;4185;41.506;24.938;2022-10-30T12:55:02;2.67;;;1.70;;
8293;SDS011;4185;41.506;24.938;2022-10-30T12:57:39;4.80;;;2.37;;
8293;SDS011;4185;41.506;24.938;2022-10-30T13:00:10;2.80;;;1.70;;
8293;SDS011;4185;41.506;24.938;2022-10-30T13:02:43;2.20;;;1.60;;
8293;SDS011;4185;41.506;24.938;2022-10-30T13:05:27;2.23;;;1.67;;
8293;SDS011;4185;41.506;24.938;2022-10-30T13:08:03;3.73;;;2.07;;
8293;SDS011;4185;41.506;24.938;2022-10-30T13:10:38;5.20;;;1.87;;
8293;SDS011;4185;41.506;24.938;2022-10-30T13:13:10;2.47;;;2.05;;
8293;SDS011;4185;41.506;24.938;2022-10-30T13:15:43;3.25;;;1.90;;
8293;SDS011;4185;41.506;24.938;2022-10-30T13:18:17;2.40;;;1.90;;
8293;SDS011;4185;41.506;24.938;2022-10-30T13:20:55;2.20;;;1.70;;
8293;SDS011;4185;41.506;24.938;2022-10-30T13:23:30;2.63;;;2.42;;
8293;SDS011;4185;41.506;24.938;2022-10-30T13:26:07;4.15;;;2.30;;
8293;SDS011;4185;41.506;24.938;2022-10-30T13:28:42;2.60;;;2.40;;
8293;SDS011;4185;41.506;24.938;2022-10-30T13:31:14;2.28;;;2.08;;
8293;SDS011;4185;41.506;24.938;2022-10-30T13:33:50;3.92;;;2.47;;
8293;SDS011;4185;41.506;24.938;2022-10-30T13:36:27;3.97;;;2.67;;
8293;SDS011;4185;41.506;24.938;2022-10-30T13:38:59;2.25;;;2.05;;
8293;SDS011;4185;41.506;24.938;2022-10-30T13:41:38;2.28;;;1.83;;
8293;SDS011;4185;41.506;24.938;2022-10-30T13:44:18;8.32;;;2.10;;
8293;SDS011;4185;41.506;24.938;2022-10-30T13:46:57;3.38;;;2.00;;
8293;SDS011;4185;41.506;24.938;2022-10-30T13:49:51;4.22;;;1.80;;
8293;SDS011;4185;41.506;24.938;2022-10-30T13:52:43;3.55;;;1.85;;
8293;SDS011;4185;41.506;24.938;2022-10-30T13:55:18;2.13;;;1.83;;
8293;SDS011;4185;41.506;24.938;2022-10-30T13:57:49;3.20;;;2.00;;
8293;SDS011;4185;41.506;24.938;2022-10-30T14:00:20;2.65;;;1.77;;
8293;SDS011;4185;41.506;24.938;2022-10-30T14:03:09;15.23;;;9.13;;
8293;SDS011;4185;41.506;24.938;2022-10-30T14:05:44;16.33;;;8.23;;
8293;SDS011;4185;41.506;24.938;2022-10-30T14:08:16;7.03;;;3.80;;
8293;SDS011;4185;41.506;24.938;2022-10-30T14:10:51;6.53;;;2.63;;
8293;SDS011;4185;41.506;24.938;2022-10-30T14:13:22;4.82;;;2.75;;
8293;SDS011;4185;41.506;24.938;2022-10-30T14:15:55;8.68;;;4.22;;
8293;SDS011;4185;41.506;24.938;2022-10-30T14:18:27;7.30;;;4.07;;
8293;SDS011;4185;41.506;24.938;2022-10-30T14:24:00;7.37;;;4.87;;
8293;SDS011;4185;41.506;24.938;2022-10-30T14:26:29;10.20;;;5.80;;
8293;SDS011;4185;41.506;24.938;2022-10-30T14:28:56;12.57;;;7.10;;
8293;SDS011;4185;41.506;24.938;2022-10-30T14:31:32;8.47;;;4.00;;
8293;SDS011;4185;41.506;24.938;2022-10-30T14:34:01;6.57;;;3.90;;
8293;SDS011;4185;41.506;24.938;2022-10-30T14:39:25;7.27;;;4.23;;
8293;SDS011;4185;41.506;24.938;2022-10-30T14:41:57;9.87;;;4.90;;
8293;SDS011;4185;41.506;24.938;2022-10-30T14:44:42;8.93;;;5.73;;
8293;SDS011;4185;41.506;24.938;2022-10-30T14:50:10;10.93;;;6.80;;
8293;SDS011;4185;41.506;24.938;2022-10-30T14:52:50;9.80;;;6.30;;
8293;SDS011;4185;41.506;24.938;2022-10-30T14:55:28;11.00;;;7.53;;
8293;SDS011;4185;41.506;24.938;2022-10-30T14:58:14;12.23;;;8.47;;
8293;SDS011;4185;41.506;24.938;2022-10-30T15:00:44;13.17;;;8.87;;
8293;SDS011;4185;41.506;24.938;2022-10-30T15:06:11;12.30;;;8.23;;
8293;SDS011;4185;41.506;24.938;2022-10-30T15:08:59;13.97;;;8.93;;
8293;SDS011;4185;41.506;24.938;2022-10-30T15:11:42;15.30;;;7.93;;
8293;SDS011;4185;41.506;24.938;2022-10-30T15:14:21;10.43;;;6.90;;
8293;SDS011;4185;41.506;24.938;2022-10-30T15:16:53;12.83;;;6.43;;
8293;SDS011;4185;41.506;24.938;2022-10-30T15:19:21;10.83;;;6.57;;
8293;SDS011;4185;41.506;24.938;2022-10-30T15:21:51;9.03;;;6.50;;
8293;SDS011;4185;41.506;24.938;2022-10-30T15:24:21;9.90;;;6.83;;
8293;SDS011;4185;41.506;24.938;2022-10-30T15:26:51;8.37;;;5.90;;
8293;SDS011;4185;41.506;24.938;2022-10-30T15:29:20;9.40;;;6.07;;
8293;SDS011;4185;41.506;24.938;2022-10-30T15:31:56;8.33;;;5.93;;